sensor_id;sensor_type;location;lat;lon;timestamp;pressure;altitude;pressure_sealevel;temperature;humidity
59493;BME280;45497;43.996;22.876;2023-08-21T00:02:22;101276.69;;;27.42;45.45
59493;BME280;45497;43.996;22.876;2023-08-21T00:04:48;101284.81;;;27.48;45.25
59493;BME280;45497;43.996;22.876;2023-08-21T00:07:13;101278.81;;;27.40;45.50
59493;BME280;45497;43.996;22.876;2023-08-21T00:09:39;101276.38;;;27.34;46.03
59493;BME280;45497;43.996;22.876;2023-08-21T00:12:05;101275.25;;;27.30;46.17
59493;BME280;45497;43.996;22.876;2023-08-21T00:14:31;101281.00;;;27.28;45.88
59493;BME280;45497;43.996;22.876;2023-08-21T00:16:56;101280.69;;;27.30;46.21
59493;BME280;45497;43.996;22.876;2023-08-21T00:19:22;101272.53;;;27.24;46.22
59493;BME280;45497;43.996;22.876;2023-08-21T00:21:47;101284.47;;;27.23;45.95
59493;BME280;45497;43.996;22.876;2023-08-21T00:24:13;101283.41;;;27.24;46.38
59493;BME280;45497;43.996;22.876;2023-08-21T00:26:57;101282.28;;;27.20;45.99
59493;BME280;45497;43.996;22.876;2023-08-21T00:29:22;101283.38;;;27.14;46.07
59493;BME280;45497;43.996;22.876;2023-08-21T00:31:48;101295.03;;;27.04;46.52
59493;BME280;45497;43.996;22.876;2023-08-21T00:34:13;101295.25;;;26.87;47.20
59493;BME280;45497;43.996;22.876;2023-08-21T00:36:41;101280.50;;;26.78;47.09
59493;BME280;45497;43.996;22.876;2023-08-21T00:39:07;101279.69;;;26.83;47.06
59493;BME280;45497;43.996;22.876;2023-08-21T00:41:32;101281.34;;;26.84;47.18
59493;BME280;45497;43.996;22.876;2023-08-21T00:43:59;101286.00;;;26.88;46.75
59493;BME280;45497;43.996;22.876;2023-08-21T00:46:25;101280.56;;;26.88;46.76
59493;BME280;45497;43.996;22.876;2023-08-21T00:48:51;101291.72;;;26.87;47.00
59493;BME280;45497;43.996;22.876;2023-08-21T00:51:17;101287.03;;;26.77;47.34
59493;BME280;45497;43.996;22.876;2023-08-21T00:53:43;101293.50;;;26.66;47.56
59493;BME280;45497;43.996;22.876;2023-08-21T00:56:09;101290.66;;;26.45;48.41
59493;BME280;45497;43.996;22.876;2023-08-21T00:58:35;101289.59;;;26.51;48.05
59493;BME280;45497;43.996;22.876;2023-08-21T01:01:01;101293.38;;;26.50;48.12
59493;BME280;45497;43.996;22.876;2023-08-21T01:03:27;101297.78;;;26.57;47.97
59493;BME280;45497;43.996;22.876;2023-08-21T01:05:54;101287.94;;;26.50;48.18
59493;BME280;45497;43.996;22.876;2023-08-21T01:08:57;101300.94;;;26.43;48.92
59493;BME280;45497;43.996;22.876;2023-08-21T01:12:02;101301.53;;;26.50;48.28
59493;BME280;45497;43.996;22.876;2023-08-21T01:17:04;101296.94;;;26.51;48.07
59493;BME280;45497;43.996;22.876;2023-08-21T01:19:42;101306.41;;;26.48;48.10
59493;BME280;45497;43.996;22.876;2023-08-21T01:22:08;101308.56;;;26.46;48.44
59493;BME280;45497;43.996;22.876;2023-08-21T01:24:34;101294.13;;;26.41;48.48
59493;BME280;45497;43.996;22.876;2023-08-21T01:27:00;101304.50;;;26.44;48.29
59493;BME280;45497;43.996;22.876;2023-08-21T01:29:25;101299.25;;;26.32;48.89
59493;BME280;45497;43.996;22.876;2023-08-21T01:32:15;101311.28;;;26.09;49.85
59493;BME280;45497;43.996;22.876;2023-08-21T01:34:46;101309.84;;;25.96;50.34
59493;BME280;45497;43.996;22.876;2023-08-21T01:37:13;101305.50;;;25.95;50.20
59493;BME280;45497;43.996;22.876;2023-08-21T01:39:39;101306.13;;;25.80;50.57
59493;BME280;45497;43.996;22.876;2023-08-21T01:42:04;101309.78;;;25.64;51.27
59493;BME280;45497;43.996;22.876;2023-08-21T01:44:30;101321.34;;;25.81;50.67
59493;BME280;45497;43.996;22.876;2023-08-21T01:46:55;101316.75;;;25.82;50.44
59493;BME280;45497;43.996;22.876;2023-08-21T01:49:21;101317.16;;;25.68;50.98
59493;BME280;45497;43.996;22.876;2023-08-21T01:51:46;101318.34;;;25.50;51.38
59493;BME280;45497;43.996;22.876;2023-08-21T01:54:12;101318.72;;;25.37;51.76
59493;BME280;45497;43.996;22.876;2023-08-21T01:56:37;101322.28;;;25.37;51.65
59493;BME280;45497;43.996;22.876;2023-08-21T01:59:04;101322.78;;;25.34;51.95
59493;BME280;45497;43.996;22.876;2023-08-21T02:01:30;101307.06;;;25.36;51.36
59493;BME280;45497;43.996;22.876;2023-08-21T02:03:56;101303.97;;;25.28;51.82
59493;BME280;45497;43.996;22.876;2023-08-21T02:06:21;101315.50;;;25.18;52.19
59493;BME280;45497;43.996;22.876;2023-08-21T02:08:47;101309.63;;;25.04;52.71
59493;BME280;45497;43.996;22.876;2023-08-21T02:11:12;101310.41;;;24.99;52.79
59493;BME280;45497;43.996;22.876;2023-08-21T02:13:37;101311.47;;;24.98;52.84
59493;BME280;45497;43.996;22.876;2023-08-21T02:16:03;101319.09;;;25.02;52.77
59493;BME280;45497;43.996;22.876;2023-08-21T02:18:29;101316.81;;;24.93;52.99
59493;BME280;45497;43.996;22.876;2023-08-21T02:20:54;101323.25;;;24.87;53.06
59493;BME280;45497;43.996;22.876;2023-08-21T02:23:20;101321.38;;;24.88;52.99
59493;BME280;45497;43.996;22.876;2023-08-21T02:25:45;101328.44;;;24.89;53.20
59493;BME280;45497;43.996;22.876;2023-08-21T02:28:11;101321.94;;;24.90;53.28
59493;BME280;45497;43.996;22.876;2023-08-21T02:30:40;101318.09;;;24.86;53.05
59493;BME280;45497;43.996;22.876;2023-08-21T02:33:05;101321.94;;;24.90;53.44
59493;BME280;45497;43.996;22.876;2023-08-21T02:35:31;101324.78;;;24.78;53.53
59493;BME280;45497;43.996;22.876;2023-08-21T02:37:56;101326.16;;;24.80;53.40
59493;BME280;45497;43.996;22.876;2023-08-21T02:40:22;101322.44;;;24.87;53.24
59493;BME280;45497;43.996;22.876;2023-08-21T02:42:47;101320.94;;;24.96;52.72
59493;BME280;45497;43.996;22.876;2023-08-21T02:45:13;101323.13;;;24.99;52.62
59493;BME280;45497;43.996;22.876;2023-08-21T02:47:39;101321.84;;;24.85;53.24
59493;BME280;45497;43.996;22.876;2023-08-21T02:50:05;101316.31;;;24.74;53.42
59493;BME280;45497;43.996;22.876;2023-08-21T02:52:33;101327.81;;;24.82;53.19
59493;BME280;45497;43.996;22.876;2023-08-21T02:54:59;101319.34;;;24.78;53.20
59493;BME280;45497;43.996;22.876;2023-08-21T02:57:24;101327.34;;;24.90;52.90
59493;BME280;45497;43.996;22.876;2023-08-21T02:59:50;101319.84;;;24.97;52.66
59493;BME280;45497;43.996;22.876;2023-08-21T03:02:16;101325.84;;;24.99;52.45
59493;BME280;45497;43.996;22.876;2023-08-21T03:04:42;101328.22;;;24.95;52.42
59493;BME280;45497;43.996;22.876;2023-08-21T03:07:07;101323.00;;;24.89;52.71
59493;BME280;45497;43.996;22.876;2023-08-21T03:09:33;101328.28;;;24.78;53.07
59493;BME280;45497;43.996;22.876;2023-08-21T03:11:58;101326.00;;;24.70;53.32
59493;BME280;45497;43.996;22.876;2023-08-21T03:14:26;101330.94;;;24.73;53.19
59493;BME280;45497;43.996;22.876;2023-08-21T03:16:52;101333.72;;;24.78;53.07
59493;BME280;45497;43.996;22.876;2023-08-21T03:19:17;101322.38;;;24.82;52.93
59493;BME280;45497;43.996;22.876;2023-08-21T03:21:43;101326.28;;;24.91;52.59
59493;BME280;45497;43.996;22.876;2023-08-21T03:24:08;101321.69;;;24.91;52.58
59493;BME280;45497;43.996;22.876;2023-08-21T03:26:34;101312.25;;;24.94;52.37
59493;BME280;45497;43.996;22.876;2023-08-21T03:29:00;101319.03;;;24.96;52.32
59493;BME280;45497;43.996;22.876;2023-08-21T03:31:25;101317.59;;;24.89;52.64
59493;BME280;45497;43.996;22.876;2023-08-21T03:33:51;101324.63;;;24.90;52.79
59493;BME280;45497;43.996;22.876;2023-08-21T03:36:17;101320.56;;;24.87;52.69
59493;BME280;45497;43.996;22.876;2023-08-21T03:38:44;101322.25;;;24.93;52.62
59493;BME280;45497;43.996;22.876;2023-08-21T03:41:09;101320.94;;;24.96;52.43
59493;BME280;45497;43.996;22.876;2023-08-21T03:43:35;101315.69;;;24.89;52.64
59493;BME280;45497;43.996;22.876;2023-08-21T03:46:01;101322.44;;;24.87;52.75
59493;BME280;45497;43.996;22.876;2023-08-21T03:48:26;101317.75;;;24.82;52.82
59493;BME280;45497;43.996;22.876;2023-08-21T03:50:52;101322.78;;;24.73;53.33
59493;BME280;45497;43.996;22.876;2023-08-21T03:53:18;101312.41;;;24.65;53.36
59493;BME280;45497;43.996;22.876;2023-08-21T03:55:43;101316.00;;;24.71;53.12
59493;BME280;45497;43.996;22.876;2023-08-21T03:58:08;101305.03;;;24.83;52.74
59493;BME280;45497;43.996;22.876;2023-08-21T04:00:34;101305.72;;;24.95;52.27
59493;BME280;45497;43.996;22.876;2023-08-21T04:02:59;101305.53;;;25.02;52.15
59493;BME280;45497;43.996;22.876;2023-08-21T04:05:25;101302.38;;;25.10;51.85
59493;BME280;45497;43.996;22.876;2023-08-21T04:07:50;101307.63;;;25.16;51.81
59493;BME280;45497;43.996;22.876;2023-08-21T04:10:16;101312.97;;;25.11;52.17
59493;BME280;45497;43.996;22.876;2023-08-21T04:12:42;101306.44;;;25.07;52.43
59493;BME280;45497;43.996;22.876;2023-08-21T04:15:08;101315.84;;;24.99;52.66
59493;BME280;45497;43.996;22.876;2023-08-21T04:17:34;101307.41;;;25.01;52.58
59493;BME280;45497;43.996;22.876;2023-08-21T04:19:59;101321.13;;;25.11;52.42
59493;BME280;45497;43.996;22.876;2023-08-21T04:22:24;101308.63;;;25.10;52.36
59493;BME280;45497;43.996;22.876;2023-08-21T04:24:50;101314.63;;;25.12;52.22
59493;BME280;45497;43.996;22.876;2023-08-21T04:27:16;101314.38;;;25.14;52.12
59493;BME280;45497;43.996;22.876;2023-08-21T04:29:41;101316.88;;;25.21;51.93
59493;BME280;45497;43.996;22.876;2023-08-21T04:32:06;101329.53;;;25.32;51.67
59493;BME280;45497;43.996;22.876;2023-08-21T04:34:32;101325.88;;;25.43;51.47
59493;BME280;45497;43.996;22.876;2023-08-21T04:36:58;101325.31;;;25.41;51.56
59493;BME280;45497;43.996;22.876;2023-08-21T04:39:24;101325.06;;;25.43;51.45
59493;BME280;45497;43.996;22.876;2023-08-21T04:41:49;101325.09;;;25.48;51.33
59493;BME280;45497;43.996;22.876;2023-08-21T04:44:15;101324.84;;;25.49;51.29
59493;BME280;45497;43.996;22.876;2023-08-21T04:46:41;101326.78;;;25.54;51.08
59493;BME280;45497;43.996;22.876;2023-08-21T04:49:06;101324.13;;;25.59;51.10
59493;BME280;45497;43.996;22.876;2023-08-21T04:51:32;101328.16;;;25.56;51.13
59493;BME280;45497;43.996;22.876;2023-08-21T04:53:57;101330.69;;;25.63;51.09
59493;BME280;45497;43.996;22.876;2023-08-21T04:56:25;101331.06;;;25.72;50.88
59493;BME280;45497;43.996;22.876;2023-08-21T04:58:50;101338.69;;;25.75;50.98
59493;BME280;45497;43.996;22.876;2023-08-21T05:01:16;101339.88;;;25.84;50.65
59493;BME280;45497;43.996;22.876;2023-08-21T05:03:41;101343.78;;;25.93;50.61
59493;BME280;45497;43.996;22.876;2023-08-21T05:06:07;101344.13;;;26.02;50.47
59493;BME280;45497;43.996;22.876;2023-08-21T05:08:33;101350.13;;;26.04;50.55
59493;BME280;45497;43.996;22.876;2023-08-21T05:11:00;101347.72;;;26.08;50.49
59493;BME280;45497;43.996;22.876;2023-08-21T05:13:26;101350.47;;;26.13;50.41
59493;BME280;45497;43.996;22.876;2023-08-21T05:15:52;101350.81;;;26.22;50.09
59493;BME280;45497;43.996;22.876;2023-08-21T05:18:19;101357.59;;;26.19;50.45
59493;BME280;45497;43.996;22.876;2023-08-21T05:20:45;101361.69;;;26.22;50.20
59493;BME280;45497;43.996;22.876;2023-08-21T05:23:10;101358.75;;;26.28;50.18
59493;BME280;45497;43.996;22.876;2023-08-21T05:25:35;101369.69;;;26.39;49.81
59493;BME280;45497;43.996;22.876;2023-08-21T05:28:01;101361.00;;;26.37;49.92
59493;BME280;45497;43.996;22.876;2023-08-21T05:30:27;101358.31;;;26.47;49.77
59493;BME280;45497;43.996;22.876;2023-08-21T05:32:52;101356.66;;;26.41;49.91
59493;BME280;45497;43.996;22.876;2023-08-21T05:35:18;101366.25;;;26.54;49.72
59493;BME280;45497;43.996;22.876;2023-08-21T05:37:45;101366.53;;;26.52;49.59
59493;BME280;45497;43.996;22.876;2023-08-21T05:40:11;101365.41;;;26.48;49.73
59493;BME280;45497;43.996;22.876;2023-08-21T05:42:37;101361.28;;;26.40;50.16
59493;BME280;45497;43.996;22.876;2023-08-21T05:45:04;101367.78;;;26.72;49.85
59493;BME280;45497;43.996;22.876;2023-08-21T05:47:30;101364.03;;;26.78;49.58
59493;BME280;45497;43.996;22.876;2023-08-21T05:49:55;101356.59;;;26.68;49.64
59493;BME280;45497;43.996;22.876;2023-08-21T05:52:21;101364.25;;;26.71;49.49
59493;BME280;45497;43.996;22.876;2023-08-21T05:54:48;101362.84;;;26.63;49.78
59493;BME280;45497;43.996;22.876;2023-08-21T05:57:13;101369.50;;;26.88;49.59
59493;BME280;45497;43.996;22.876;2023-08-21T05:59:44;101365.78;;;27.09;49.14
59493;BME280;45497;43.996;22.876;2023-08-21T06:02:10;101367.16;;;27.07;48.82
59493;BME280;45497;43.996;22.876;2023-08-21T06:04:39;101370.47;;;27.19;48.94
59493;BME280;45497;43.996;22.876;2023-08-21T06:07:04;101367.88;;;27.40;48.53
59493;BME280;45497;43.996;22.876;2023-08-21T06:09:30;101375.00;;;27.61;48.10
59493;BME280;45497;43.996;22.876;2023-08-21T06:11:56;101375.03;;;27.82;47.90
59493;BME280;45497;43.996;22.876;2023-08-21T06:14:22;101374.03;;;27.98;47.81
59493;BME280;45497;43.996;22.876;2023-08-21T06:16:55;101367.22;;;28.16;47.71
59493;BME280;45497;43.996;22.876;2023-08-21T06:19:21;101372.13;;;28.30;47.25
59493;BME280;45497;43.996;22.876;2023-08-21T06:21:46;101367.75;;;28.39;47.27
59493;BME280;45497;43.996;22.876;2023-08-21T06:24:12;101375.13;;;28.44;47.28
59493;BME280;45497;43.996;22.876;2023-08-21T06:26:37;101370.75;;;28.63;46.76
59493;BME280;45497;43.996;22.876;2023-08-21T06:29:03;101370.97;;;28.77;46.92
59493;BME280;45497;43.996;22.876;2023-08-21T06:31:28;101361.97;;;28.92;46.71
59493;BME280;45497;43.996;22.876;2023-08-21T06:33:54;101353.19;;;28.95;46.46
59493;BME280;45497;43.996;22.876;2023-08-21T06:36:19;101362.16;;;29.06;46.35
59493;BME280;45497;43.996;22.876;2023-08-21T06:38:45;101366.47;;;29.27;46.26
59493;BME280;45497;43.996;22.876;2023-08-21T06:41:10;101359.03;;;29.38;46.04
59493;BME280;45497;43.996;22.876;2023-08-21T06:43:36;101358.97;;;29.53;45.90
59493;BME280;45497;43.996;22.876;2023-08-21T06:46:01;101363.50;;;29.73;45.73
59493;BME280;45497;43.996;22.876;2023-08-21T06:48:27;101362.91;;;29.82;45.52
59493;BME280;45497;43.996;22.876;2023-08-21T06:50:52;101367.75;;;29.95;45.46
59493;BME280;45497;43.996;22.876;2023-08-21T06:53:18;101365.22;;;30.04;45.26
59493;BME280;45497;43.996;22.876;2023-08-21T06:55:46;101369.22;;;30.17;45.07
59493;BME280;45497;43.996;22.876;2023-08-21T06:58:12;101368.94;;;30.18;45.26
59493;BME280;45497;43.996;22.876;2023-08-21T07:00:38;101360.47;;;30.49;44.94
59493;BME280;45497;43.996;22.876;2023-08-21T07:03:04;101367.69;;;30.64;44.58
59493;BME280;45497;43.996;22.876;2023-08-21T07:05:33;101370.63;;;30.73;44.39
59493;BME280;45497;43.996;22.876;2023-08-21T07:07:59;101374.34;;;30.82;44.44
59493;BME280;45497;43.996;22.876;2023-08-21T07:10:24;101375.34;;;30.91;44.52
59493;BME280;45497;43.996;22.876;2023-08-21T07:12:50;101372.06;;;30.94;44.48
59493;BME280;45497;43.996;22.876;2023-08-21T07:15:15;101379.78;;;31.11;44.15
59493;BME280;45497;43.996;22.876;2023-08-21T07:17:41;101374.66;;;31.29;43.97
59493;BME280;45497;43.996;22.876;2023-08-21T07:20:07;101368.94;;;31.25;43.77
59493;BME280;45497;43.996;22.876;2023-08-21T07:22:33;101369.22;;;31.23;43.65
59493;BME280;45497;43.996;22.876;2023-08-21T07:24:58;101366.94;;;31.31;43.77
59493;BME280;45497;43.996;22.876;2023-08-21T07:27:26;101371.56;;;31.35;43.40
59493;BME280;45497;43.996;22.876;2023-08-21T07:29:51;101376.84;;;31.51;43.72
59493;BME280;45497;43.996;22.876;2023-08-21T07:32:17;101369.56;;;31.60;43.31
59493;BME280;45497;43.996;22.876;2023-08-21T07:34:42;101379.06;;;31.68;43.59
59493;BME280;45497;43.996;22.876;2023-08-21T07:37:08;101370.97;;;31.76;42.96
59493;BME280;45497;43.996;22.876;2023-08-21T07:39:34;101370.91;;;31.81;43.22
59493;BME280;45497;43.996;22.876;2023-08-21T07:42:00;101369.31;;;31.94;42.78
59493;BME280;45497;43.996;22.876;2023-08-21T07:44:26;101365.06;;;32.07;42.78
59493;BME280;45497;43.996;22.876;2023-08-21T07:46:52;101360.94;;;32.24;42.14
59493;BME280;45497;43.996;22.876;2023-08-21T07:49:17;101366.63;;;32.27;42.38
59493;BME280;45497;43.996;22.876;2023-08-21T07:51:43;101377.75;;;32.36;41.90
59493;BME280;45497;43.996;22.876;2023-08-21T07:54:08;101358.13;;;32.43;41.83
59493;BME280;45497;43.996;22.876;2023-08-21T07:56:34;101350.00;;;32.51;41.70
59493;BME280;45497;43.996;22.876;2023-08-21T07:59:02;101361.44;;;32.58;41.81
59493;BME280;45497;43.996;22.876;2023-08-21T08:01:27;101358.19;;;32.70;41.71
59493;BME280;45497;43.996;22.876;2023-08-21T08:03:53;101353.31;;;32.81;41.49
59493;BME280;45497;43.996;22.876;2023-08-21T08:06:18;101352.59;;;33.03;41.47
59493;BME280;45497;43.996;22.876;2023-08-21T08:08:44;101345.84;;;33.09;41.19
59493;BME280;45497;43.996;22.876;2023-08-21T08:11:10;101337.09;;;33.07;41.20
59493;BME280;45497;43.996;22.876;2023-08-21T08:13:36;101330.81;;;33.07;41.33
59493;BME280;45497;43.996;22.876;2023-08-21T08:16:01;101335.88;;;33.27;40.89
59493;BME280;45497;43.996;22.876;2023-08-21T08:18:27;101328.09;;;33.43;41.19
59493;BME280;45497;43.996;22.876;2023-08-21T08:20:52;101333.13;;;33.64;40.64
59493;BME280;45497;43.996;22.876;2023-08-21T08:23:19;101327.94;;;33.62;40.45
59493;BME280;45497;43.996;22.876;2023-08-21T08:25:45;101331.00;;;33.61;40.09
59493;BME280;45497;43.996;22.876;2023-08-21T08:28:10;101327.28;;;33.79;39.96
59493;BME280;45497;43.996;22.876;2023-08-21T08:30:36;101327.09;;;33.76;40.04
59493;BME280;45497;43.996;22.876;2023-08-21T08:33:01;101331.78;;;33.75;40.35
59493;BME280;45497;43.996;22.876;2023-08-21T08:35:27;101330.66;;;33.76;40.18
59493;BME280;45497;43.996;22.876;2023-08-21T08:37:52;101331.47;;;33.99;39.94
59493;BME280;45497;43.996;22.876;2023-08-21T08:40:18;101327.53;;;34.14;39.78
59493;BME280;45497;43.996;22.876;2023-08-21T08:42:44;101321.13;;;34.27;39.39
59493;BME280;45497;43.996;22.876;2023-08-21T08:45:12;101324.41;;;34.38;39.24
59493;BME280;45497;43.996;22.876;2023-08-21T08:47:40;101319.31;;;34.54;39.16
59493;BME280;45497;43.996;22.876;2023-08-21T08:50:07;101318.16;;;34.55;39.07
59493;BME280;45497;43.996;22.876;2023-08-21T08:52:39;101315.28;;;34.60;39.14
59493;BME280;45497;43.996;22.876;2023-08-21T08:55:06;101311.25;;;34.66;39.15
59493;BME280;45497;43.996;22.876;2023-08-21T08:57:32;101318.38;;;34.67;39.10
59493;BME280;45497;43.996;22.876;2023-08-21T08:59:59;101306.63;;;34.84;38.79
59493;BME280;45497;43.996;22.876;2023-08-21T09:02:25;101312.31;;;34.97;38.42
59493;BME280;45497;43.996;22.876;2023-08-21T09:04:53;101299.19;;;35.11;37.90
59493;BME280;45497;43.996;22.876;2023-08-21T09:07:20;101307.81;;;35.01;37.11
59493;BME280;45497;43.996;22.876;2023-08-21T09:09:47;101303.38;;;34.91;36.46
59493;BME280;45497;43.996;22.876;2023-08-21T09:12:15;101295.94;;;35.00;36.57
59493;BME280;45497;43.996;22.876;2023-08-21T09:14:41;101297.47;;;35.24;36.55
59493;BME280;45497;43.996;22.876;2023-08-21T09:17:07;101293.56;;;35.25;36.39
59493;BME280;45497;43.996;22.876;2023-08-21T09:19:33;101290.34;;;35.32;35.73
59493;BME280;45497;43.996;22.876;2023-08-21T09:21:59;101294.72;;;35.33;36.06
59493;BME280;45497;43.996;22.876;2023-08-21T09:27:16;101281.75;;;35.42;35.65
59493;BME280;45497;43.996;22.876;2023-08-21T09:29:42;101284.47;;;35.51;35.44
59493;BME280;45497;43.996;22.876;2023-08-21T09:32:07;101274.75;;;35.62;35.18
59493;BME280;45497;43.996;22.876;2023-08-21T09:34:34;101270.69;;;35.77;34.92
59493;BME280;45497;43.996;22.876;2023-08-21T09:37:05;101270.53;;;35.82;34.75
59493;BME280;45497;43.996;22.876;2023-08-21T09:39:34;101261.22;;;35.95;35.20
59493;BME280;45497;43.996;22.876;2023-08-21T09:42:02;101257.22;;;35.84;35.32
59493;BME280;45497;43.996;22.876;2023-08-21T09:44:43;101259.78;;;35.98;35.22
59493;BME280;45497;43.996;22.876;2023-08-21T09:47:10;101255.50;;;36.09;34.85
59493;BME280;45497;43.996;22.876;2023-08-21T09:49:36;101245.72;;;36.21;34.88
59493;BME280;45497;43.996;22.876;2023-08-21T09:52:08;101253.00;;;36.34;34.63
59493;BME280;45497;43.996;22.876;2023-08-21T09:54:36;101243.78;;;36.21;34.73
59493;BME280;45497;43.996;22.876;2023-08-21T09:57:03;101249.25;;;36.30;34.74
59493;BME280;45497;43.996;22.876;2023-08-21T09:59:30;101247.06;;;36.44;34.77
59493;BME280;45497;43.996;22.876;2023-08-21T10:01:58;101236.88;;;36.45;33.88
59493;BME280;45497;43.996;22.876;2023-08-21T10:04:25;101234.47;;;36.34;33.32
59493;BME280;45497;43.996;22.876;2023-08-21T10:06:51;101239.66;;;36.36;33.19
59493;BME280;45497;43.996;22.876;2023-08-21T10:09:20;101235.41;;;36.39;32.98
59493;BME280;45497;43.996;22.876;2023-08-21T10:11:47;101235.19;;;36.52;32.33
59493;BME280;45497;43.996;22.876;2023-08-21T10:14:13;101231.25;;;36.53;32.57
59493;BME280;45497;43.996;22.876;2023-08-21T10:16:38;101222.97;;;36.53;32.64
59493;BME280;45497;43.996;22.876;2023-08-21T10:19:04;101229.75;;;36.65;32.29
59493;BME280;45497;43.996;22.876;2023-08-21T10:21:37;101227.00;;;36.65;32.47
59493;BME280;45497;43.996;22.876;2023-08-21T10:24:03;101209.56;;;36.73;31.47
59493;BME280;45497;43.996;22.876;2023-08-21T10:26:28;101203.91;;;36.90;30.75
59493;BME280;45497;43.996;22.876;2023-08-21T10:28:58;101206.47;;;36.96;30.70
59493;BME280;45497;43.996;22.876;2023-08-21T10:31:40;101203.00;;;36.99;30.46
59493;BME280;45497;43.996;22.876;2023-08-21T10:34:12;101205.91;;;37.02;30.12
59493;BME280;45497;43.996;22.876;2023-08-21T10:39:16;101200.84;;;37.25;30.46
59493;BME280;45497;43.996;22.876;2023-08-21T10:41:53;101200.25;;;37.20;29.82
59493;BME280;45497;43.996;22.876;2023-08-21T10:47:15;101196.56;;;37.16;29.45
59493;BME280;45497;43.996;22.876;2023-08-21T10:49:49;101207.75;;;37.19;29.44
59493;BME280;45497;43.996;22.876;2023-08-21T10:52:20;101199.13;;;37.21;29.49
59493;BME280;45497;43.996;22.876;2023-08-21T10:54:48;101188.56;;;37.14;29.65
59493;BME280;45497;43.996;22.876;2023-08-21T10:57:14;101189.94;;;37.08;30.41
59493;BME280;45497;43.996;22.876;2023-08-21T10:59:50;101189.25;;;37.11;29.75
59493;BME280;45497;43.996;22.876;2023-08-21T11:02:17;101182.44;;;37.08;29.55
59493;BME280;45497;43.996;22.876;2023-08-21T11:07:36;101178.66;;;37.13;29.06
59493;BME280;45497;43.996;22.876;2023-08-21T11:10:02;101177.59;;;37.26;29.22
59493;BME280;45497;43.996;22.876;2023-08-21T11:12:29;101174.03;;;37.38;28.84
59493;BME280;45497;43.996;22.876;2023-08-21T11:14:54;101176.13;;;37.41;29.07
59493;BME280;45497;43.996;22.876;2023-08-21T11:17:20;101175.53;;;37.36;29.13
59493;BME280;45497;43.996;22.876;2023-08-21T11:19:46;101171.78;;;37.40;29.32
59493;BME280;45497;43.996;22.876;2023-08-21T11:22:13;101175.88;;;37.34;28.97
59493;BME280;45497;43.996;22.876;2023-08-21T11:24:46;101172.91;;;37.39;29.61
59493;BME280;45497;43.996;22.876;2023-08-21T11:27:18;101173.97;;;37.59;29.48
59493;BME280;45497;43.996;22.876;2023-08-21T11:32:15;101165.38;;;37.73;29.82
59493;BME280;45497;43.996;22.876;2023-08-21T11:34:43;101157.66;;;37.66;29.60
59493;BME280;45497;43.996;22.876;2023-08-21T11:37:12;101157.72;;;37.58;29.30
59493;BME280;45497;43.996;22.876;2023-08-21T11:39:42;101158.97;;;37.48;29.12
59493;BME280;45497;43.996;22.876;2023-08-21T11:42:12;101151.38;;;37.45;29.20
59493;BME280;45497;43.996;22.876;2023-08-21T11:44:52;101150.97;;;37.67;29.77
59493;BME280;45497;43.996;22.876;2023-08-21T11:47:19;101145.34;;;37.76;28.81
59493;BME280;45497;43.996;22.876;2023-08-21T11:49:46;101140.13;;;37.99;28.91
59493;BME280;45497;43.996;22.876;2023-08-21T11:52:19;101140.63;;;38.01;28.82
59493;BME280;45497;43.996;22.876;2023-08-21T11:54:48;101133.78;;;37.99;28.37
59493;BME280;45497;43.996;22.876;2023-08-21T11:57:14;101132.66;;;38.00;27.94
59493;BME280;45497;43.996;22.876;2023-08-21T11:59:41;101134.03;;;38.06;27.84
59493;BME280;45497;43.996;22.876;2023-08-21T12:02:10;101128.38;;;38.15;27.90
59493;BME280;45497;43.996;22.876;2023-08-21T12:04:36;101125.03;;;38.21;27.86
59493;BME280;45497;43.996;22.876;2023-08-21T12:07:01;101119.13;;;38.23;27.42
59493;BME280;45497;43.996;22.876;2023-08-21T12:09:27;101123.41;;;38.20;27.56
59493;BME280;45497;43.996;22.876;2023-08-21T12:11:53;101119.41;;;38.18;27.28
59493;BME280;45497;43.996;22.876;2023-08-21T12:14:18;101105.53;;;38.05;26.75
59493;BME280;45497;43.996;22.876;2023-08-21T12:16:44;101105.00;;;38.12;27.22
59493;BME280;45497;43.996;22.876;2023-08-21T12:19:09;101107.38;;;38.26;27.13
59493;BME280;45497;43.996;22.876;2023-08-21T12:21:37;101114.19;;;38.29;26.88
59493;BME280;45497;43.996;22.876;2023-08-21T12:24:04;101111.56;;;38.48;26.99
59493;BME280;45497;43.996;22.876;2023-08-21T12:26:30;101107.19;;;38.47;27.34
59493;BME280;45497;43.996;22.876;2023-08-21T12:28:56;101097.94;;;38.15;26.95
59493;BME280;45497;43.996;22.876;2023-08-21T12:31:21;101108.75;;;38.08;27.29
59493;BME280;45497;43.996;22.876;2023-08-21T12:33:47;101099.31;;;38.09;27.36
59493;BME280;45497;43.996;22.876;2023-08-21T12:36:12;101106.91;;;37.99;27.47
59493;BME280;45497;43.996;22.876;2023-08-21T12:38:38;101101.63;;;37.94;28.05
59493;BME280;45497;43.996;22.876;2023-08-21T12:41:04;101108.88;;;37.86;28.06
59493;BME280;45497;43.996;22.876;2023-08-21T12:43:30;101109.00;;;37.78;28.31
59493;BME280;45497;43.996;22.876;2023-08-21T12:45:56;101107.53;;;37.80;28.23
59493;BME280;45497;43.996;22.876;2023-08-21T12:48:22;101106.25;;;37.78;28.35
59493;BME280;45497;43.996;22.876;2023-08-21T12:50:48;101100.00;;;37.68;28.54
59493;BME280;45497;43.996;22.876;2023-08-21T12:53:13;101094.81;;;37.55;28.46
59493;BME280;45497;43.996;22.876;2023-08-21T12:55:39;101083.84;;;37.46;28.66